sensor_id;sensor_type;location;lat;lon;timestamp;temperature;humidity
20858;DHT22;10589;53.636;10.012;2024-01-10T04:45:17;-3.30;99.90
20858;DHT22;10589;53.636;10.012;2024-01-10T04:47:43;-3.30;99.90
20858;DHT22;10589;53.636;10.012;2024-01-10T04:50:12;-3.30;99.90
20858;DHT22;10589;53.636;10.012;2024-01-10T04:52:38;-3.30;99.90
20858;DHT22;10589;53.636;10.012;2024-01-10T04:55:03;-3.30;99.90
20858;DHT22;10589;53.636;10.012;2024-01-10T04:57:31;-3.20;99.90
20858;DHT22;10589;53.636;10.012;2024-01-10T04:59:57;-3.20;99.90
20858;DHT22;10589;53.636;10.012;2024-01-10T05:02:23;-3.20;99.90
20858;DHT22;10589;53.636;10.012;2024-01-10T05:04:49;-3.30;99.90
20858;DHT22;10589;53.636;10.012;2024-01-10T05:07:14;-3.30;99.90
20858;DHT22;10589;53.636;10.012;2024-01-10T05:09:40;-3.30;99.90
20858;DHT22;10589;53.636;10.012;2024-01-10T05:12:06;-3.30;99.90
20858;DHT22;10589;53.636;10.012;2024-01-10T05:14:31;-3.30;99.90
20858;DHT22;10589;53.636;10.012;2024-01-10T05:16:57;-3.30;99.90
20858;DHT22;10589;53.636;10.012;2024-01-10T05:19:22;-3.30;99.90
20858;DHT22;10589;53.636;10.012;2024-01-10T05:21:48;-3.30;99.90
20858;DHT22;10589;53.636;10.012;2024-01-10T05:24:14;-3.30;99.90
20858;DHT22;10589;53.636;10.012;2024-01-10T05:26:39;-3.30;99.90
20858;DHT22;10589;53.636;10.012;2024-01-10T05:29:05;-3.30;99.90
20858;DHT22;10589;53.636;10.012;2024-01-10T05:31:30;-3.40;99.90
20858;DHT22;10589;53.636;10.012;2024-01-10T05:33:56;-3.40;99.90
20858;DHT22;10589;53.636;10.012;2024-01-10T05:36:22;-3.30;99.90
20858;DHT22;10589;53.636;10.012;2024-01-10T05:38:48;-3.40;99.90
20858;DHT22;10589;53.636;10.012;2024-01-10T05:41:14;-3.40;99.90
20858;DHT22;10589;53.636;10.012;2024-01-10T05:43:40;-3.30;99.90
20858;DHT22;10589;53.636;10.012;2024-01-10T05:46:06;-3.30;99.90
20858;DHT22;10589;53.636;10.012;2024-01-10T05:48:33;-3.30;99.90
20858;DHT22;10589;53.636;10.012;2024-01-10T05:50:58;-3.40;99.90
20858;DHT22;10589;53.636;10.012;2024-01-10T05:53:24;-3.40;99.90
20858;DHT22;10589;53.636;10.012;2024-01-10T05:55:50;-3.40;99.90
20858;DHT22;10589;53.636;10.012;2024-01-10T05:58:16;-3.40;99.90
20858;DHT22;10589;53.636;10.012;2024-01-10T06:00:42;-3.40;99.90
20858;DHT22;10589;53.636;10.012;2024-01-10T06:03:08;-3.40;99.90
20858;DHT22;10589;53.636;10.012;2024-01-10T06:05:34;-3.40;99.90
20858;DHT22;10589;53.636;10.012;2024-01-10T06:08:00;-3.40;99.90
20858;DHT22;10589;53.636;10.012;2024-01-10T06:10:25;-3.30;99.90
20858;DHT22;10589;53.636;10.012;2024-01-10T06:12:51;-3.30;99.90
20858;DHT22;10589;53.636;10.012;2024-01-10T06:15:16;-3.30;99.90
20858;DHT22;10589;53.636;10.012;2024-01-10T06:17:42;-3.20;99.90
20858;DHT22;10589;53.636;10.012;2024-01-10T06:20:09;-3.20;99.90
20858;DHT22;10589;53.636;10.012;2024-01-10T06:22:34;-3.20;99.90
20858;DHT22;10589;53.636;10.012;2024-01-10T06:25:00;-3.20;99.90
20858;DHT22;10589;53.636;10.012;2024-01-10T06:27:26;-3.20;99.90
20858;DHT22;10589;53.636;10.012;2024-01-10T06:29:51;-3.20;99.90
20858;DHT22;10589;53.636;10.012;2024-01-10T06:32:17;-3.20;99.90
20858;DHT22;10589;53.636;10.012;2024-01-10T06:34:42;-3.20;99.90
20858;DHT22;10589;53.636;10.012;2024-01-10T06:37:08;-3.30;99.90
20858;DHT22;10589;53.636;10.012;2024-01-10T06:39:34;-3.20;99.90
20858;DHT22;10589;53.636;10.012;2024-01-10T06:42:00;-3.20;99.90
20858;DHT22;10589;53.636;10.012;2024-01-10T06:44:25;-3.20;99.90
20858;DHT22;10589;53.636;10.012;2024-01-10T06:46:53;-3.20;99.90
20858;DHT22;10589;53.636;10.012;2024-01-10T06:49:18;-3.20;99.90
20858;DHT22;10589;53.636;10.012;2024-01-10T06:51:44;-3.10;99.90
20858;DHT22;10589;53.636;10.012;2024-01-10T06:54:09;-3.10;99.90
20858;DHT22;10589;53.636;10.012;2024-01-10T06:56:35;-3.10;99.90
20858;DHT22;10589;53.636;10.012;2024-01-10T06:59:01;-3.10;99.90
20858;DHT22;10589;53.636;10.012;2024-01-10T07:01:27;-3.10;99.90
20858;DHT22;10589;53.636;10.012;2024-01-10T07:03:53;-3.00;99.90
20858;DHT22;10589;53.636;10.012;2024-01-10T07:06:22;-3.00;99.90
20858;DHT22;10589;53.636;10.012;2024-01-10T07:08:49;-3.00;99.90
20858;DHT22;10589;53.636;10.012;2024-01-10T07:11:15;-3.00;99.90
20858;DHT22;10589;53.636;10.012;2024-01-10T07:13:41;-3.10;99.90
20858;DHT22;10589;53.636;10.012;2024-01-10T07:16:08;-3.00;99.90
20858;DHT22;10589;53.636;10.012;2024-01-10T07:18:33;-3.10;99.90
20858;DHT22;10589;53.636;10.012;2024-01-10T07:20:59;-3.10;99.90
20858;DHT22;10589;53.636;10.012;2024-01-10T07:23:27;-3.10;99.90
20858;DHT22;10589;53.636;10.012;2024-01-10T07:25:53;-3.10;99.90
20858;DHT22;10589;53.636;10.012;2024-01-10T07:28:19;-3.10;99.90
20858;DHT22;10589;53.636;10.012;2024-01-10T07:30:45;-3.00;99.90
20858;DHT22;10589;53.636;10.012;2024-01-10T07:33:11;-3.10;99.90
20858;DHT22;10589;53.636;10.012;2024-01-10T07:35:37;-3.00;99.90
20858;DHT22;10589;53.636;10.012;2024-01-10T07:38:04;-3.10;99.90
20858;DHT22;10589;53.636;10.012;2024-01-10T07:40:29;-3.10;99.90
20858;DHT22;10589;53.636;10.012;2024-01-10T07:42:56;-3.10;99.90
20858;DHT22;10589;53.636;10.012;2024-01-10T07:45:22;-3.10;99.90
20858;DHT22;10589;53.636;10.012;2024-01-10T07:47:48;-3.10;99.90
20858;DHT22;10589;53.636;10.012;2024-01-10T07:50:13;-3.10;99.90
20858;DHT22;10589;53.636;10.012;2024-01-10T07:52:40;-3.10;99.90
20858;DHT22;10589;53.636;10.012;2024-01-10T07:55:06;-3.10;99.90
20858;DHT22;10589;53.636;10.012;2024-01-10T07:57:33;-3.10;99.90
20858;DHT22;10589;53.636;10.012;2024-01-10T08:00:05;-3.10;99.90
20858;DHT22;10589;53.636;10.012;2024-01-10T08:02:33;-3.10;99.90
20858;DHT22;10589;53.636;10.012;2024-01-10T08:05:03;-3.10;99.90
20858;DHT22;10589;53.636;10.012;2024-01-10T08:07:34;-3.00;99.90
20858;DHT22;10589;53.636;10.012;2024-01-10T08:10:00;-3.00;99.90
20858;DHT22;10589;53.636;10.012;2024-01-10T08:12:25;-3.10;99.90
20858;DHT22;10589;53.636;10.012;2024-01-10T08:14:51;-3.00;99.90
20858;DHT22;10589;53.636;10.012;2024-01-10T08:17:17;-3.10;99.90
20858;DHT22;10589;53.636;10.012;2024-01-10T08:19:42;-3.00;99.90
20858;DHT22;10589;53.636;10.012;2024-01-10T08:22:08;-3.10;99.90
20858;DHT22;10589;53.636;10.012;2024-01-10T08:24:34;-3.10;99.90
20858;DHT22;10589;53.636;10.012;2024-01-10T08:26:59;-3.00;99.90
20858;DHT22;10589;53.636;10.012;2024-01-10T08:29:25;-3.10;99.90
20858;DHT22;10589;53.636;10.012;2024-01-10T08:31:56;-3.10;99.90
20858;DHT22;10589;53.636;10.012;2024-01-10T08:34:22;-3.10;99.90
20858;DHT22;10589;53.636;10.012;2024-01-10T08:36:48;-3.10;99.90
20858;DHT22;10589;53.636;10.012;2024-01-10T08:39:16;-3.10;99.90
20858;DHT22;10589;53.636;10.012;2024-01-10T08:41:42;-3.00;99.90
20858;DHT22;10589;53.636;10.012;2024-01-10T08:44:10;-3.00;99.90
20858;DHT22;10589;53.636;10.012;2024-01-10T08:46:35;-2.90;99.90
20858;DHT22;10589;53.636;10.012;2024-01-10T08:49:01;-2.90;99.90
20858;DHT22;10589;53.636;10.012;2024-01-10T08:51:26;-2.90;99.90
20858;DHT22;10589;53.636;10.012;2024-01-10T08:53:52;-2.90;99.90
20858;DHT22;10589;53.636;10.012;2024-01-10T08:56:24;-2.90;99.90
20858;DHT22;10589;53.636;10.012;2024-01-10T08:58:50;-2.90;99.90
20858;DHT22;10589;53.636;10.012;2024-01-10T09:01:15;-2.80;99.90
20858;DHT22;10589;53.636;10.012;2024-01-10T09:03:41;-2.90;99.90
20858;DHT22;10589;53.636;10.012;2024-01-10T09:06:06;-2.80;99.90
20858;DHT22;10589;53.636;10.012;2024-01-10T09:08:36;-2.70;99.90
20858;DHT22;10589;53.636;10.012;2024-01-10T09:11:02;-2.70;99.90
20858;DHT22;10589;53.636;10.012;2024-01-10T09:13:28;-2.70;99.90
20858;DHT22;10589;53.636;10.012;2024-01-10T09:15:53;-2.70;99.90
20858;DHT22;10589;53.636;10.012;2024-01-10T09:18:19;-2.60;99.90
20858;DHT22;10589;53.636;10.012;2024-01-10T09:20:45;-2.60;99.90
20858;DHT22;10589;53.636;10.012;2024-01-10T09:23:10;-2.60;99.90
20858;DHT22;10589;53.636;10.012;2024-01-10T09:25:36;-2.60;99.90
20858;DHT22;10589;53.636;10.012;2024-01-10T09:28:04;-2.50;99.90
20858;DHT22;10589;53.636;10.012;2024-01-10T09:30:29;-2.50;99.90
20858;DHT22;10589;53.636;10.012;2024-01-10T09:32:55;-2.50;99.90
20858;DHT22;10589;53.636;10.012;2024-01-10T09:35:22;-2.50;99.90
20858;DHT22;10589;53.636;10.012;2024-01-10T09:37:48;-2.50;99.90
20858;DHT22;10589;53.636;10.012;2024-01-10T09:40:16;-2.60;99.90
20858;DHT22;10589;53.636;10.012;2024-01-10T09:42:43;-2.50;99.90
20858;DHT22;10589;53.636;10.012;2024-01-10T09:45:10;-2.40;99.90
20858;DHT22;10589;53.636;10.012;2024-01-10T09:47:39;-2.40;99.90
20858;DHT22;10589;53.636;10.012;2024-01-10T09:50:06;-2.40;99.90
20858;DHT22;10589;53.636;10.012;2024-01-10T09:52:39;-2.40;99.90
20858;DHT22;10589;53.636;10.012;2024-01-10T09:55:07;-2.20;99.90
20858;DHT22;10589;53.636;10.012;2024-01-10T09:57:33;-2.20;99.90
20858;DHT22;10589;53.636;10.012;2024-01-10T10:00:02;-2.10;99.90
20858;DHT22;10589;53.636;10.012;2024-01-10T10:02:31;-2.00;99.90
20858;DHT22;10589;53.636;10.012;2024-01-10T10:05:03;-2.00;99.90
20858;DHT22;10589;53.636;10.012;2024-01-10T10:07:29;-1.90;99.90
20858;DHT22;10589;53.636;10.012;2024-01-10T10:09:55;-1.80;99.90
20858;DHT22;10589;53.636;10.012;2024-01-10T10:12:44;-1.80;99.90
20858;DHT22;10589;53.636;10.012;2024-01-10T10:15:12;-1.80;99.90
20858;DHT22;10589;53.636;10.012;2024-01-10T10:17:39;-1.70;99.90
20858;DHT22;10589;53.636;10.012;2024-01-10T10:20:21;-1.60;99.90
20858;DHT22;10589;53.636;10.012;2024-01-10T10:23:08;-1.60;99.90
20858;DHT22;10589;53.636;10.012;2024-01-10T10:25:46;-1.80;99.90
20858;DHT22;10589;53.636;10.012;2024-01-10T10:28:13;-1.90;99.90
20858;DHT22;10589;53.636;10.012;2024-01-10T10:30:40;-1.90;99.90
20858;DHT22;10589;53.636;10.012;2024-01-10T10:33:05;-1.80;99.90
20858;DHT22;10589;53.636;10.012;2024-01-10T10:35:33;-1.80;99.90
20858;DHT22;10589;53.636;10.012;2024-01-10T10:37:59;-1.90;99.90
20858;DHT22;10589;53.636;10.012;2024-01-10T10:40:25;-2.10;99.90
20858;DHT22;10589;53.636;10.012;2024-01-10T10:42:57;-2.10;99.90
20858;DHT22;10589;53.636;10.012;2024-01-10T10:45:23;-2.10;99.90
20858;DHT22;10589;53.636;10.012;2024-01-10T10:47:59;-2.20;99.90
20858;DHT22;10589;53.636;10.012;2024-01-10T10:50:28;-2.10;99.90
20858;DHT22;10589;53.636;10.012;2024-01-10T10:52:56;-2.10;99.90
20858;DHT22;10589;53.636;10.012;2024-01-10T10:55:22;-2.20;99.90
20858;DHT22;10589;53.636;10.012;2024-01-10T10:57:49;-2.10;99.90
20858;DHT22;10589;53.636;10.012;2024-01-10T11:00:18;-2.10;99.90
20858;DHT22;10589;53.636;10.012;2024-01-10T11:02:44;-1.90;99.90
20858;DHT22;10589;53.636;10.012;2024-01-10T11:05:11;-1.80;99.90
20858;DHT22;10589;53.636;10.012;2024-01-10T11:07:43;-1.90;99.90
20858;DHT22;10589;53.636;10.012;2024-01-10T11:10:33;-1.90;99.90
20858;DHT22;10589;53.636;10.012;2024-01-10T11:13:28;-2.20;99.90
20858;DHT22;10589;53.636;10.012;2024-01-10T11:19:14;-2.10;99.90
20858;DHT22;10589;53.636;10.012;2024-01-10T11:24:22;-2.10;99.90
20858;DHT22;10589;53.636;10.012;2024-01-10T11:26:48;-2.10;99.90
20858;DHT22;10589;53.636;10.012;2024-01-10T11:29:15;-2.10;99.90
20858;DHT22;10589;53.636;10.012;2024-01-10T11:31:40;-2.10;99.90
20858;DHT22;10589;53.636;10.012;2024-01-10T11:34:06;-2.10;99.90
20858;DHT22;10589;53.636;10.012;2024-01-10T11:36:32;-2.10;99.90
20858;DHT22;10589;53.636;10.012;2024-01-10T11:38:59;-2.10;99.90
20858;DHT22;10589;53.636;10.012;2024-01-10T11:41:27;-2.20;99.90
20858;DHT22;10589;53.636;10.012;2024-01-10T11:49:12;-2.00;99.90
20858;DHT22;10589;53.636;10.012;2024-01-10T11:51:42;-2.00;99.90
20858;DHT22;10589;53.636;10.012;2024-01-10T11:54:08;-1.90;99.90
20858;DHT22;10589;53.636;10.012;2024-01-10T11:56:43;-2.10;99.90
20858;DHT22;10589;53.636;10.012;2024-01-10T11:59:13;-1.90;99.90
20858;DHT22;10589;53.636;10.012;2024-01-10T12:01:41;-1.80;99.90
20858;DHT22;10589;53.636;10.012;2024-01-10T12:04:07;-1.80;99.90
20858;DHT22;10589;53.636;10.012;2024-01-10T12:06:35;-1.80;99.90
20858;DHT22;10589;53.636;10.012;2024-01-10T12:09:02;-1.80;99.90
20858;DHT22;10589;53.636;10.012;2024-01-10T12:11:34;-1.90;99.90
20858;DHT22;10589;53.636;10.012;2024-01-10T12:14:00;-1.90;99.90
20858;DHT22;10589;53.636;10.012;2024-01-10T12:16:26;-2.00;99.90
20858;DHT22;10589;53.636;10.012;2024-01-10T12:18:51;-2.00;99.90
20858;DHT22;10589;53.636;10.012;2024-01-10T12:21:17;-1.90;99.90
20858;DHT22;10589;53.636;10.012;2024-01-10T12:23:43;-1.90;99.90
20858;DHT22;10589;53.636;10.012;2024-01-10T12:26:11;-1.90;99.90
20858;DHT22;10589;53.636;10.012;2024-01-10T12:28:38;-1.90;99.90
20858;DHT22;10589;53.636;10.012;2024-01-10T12:31:04;-1.70;99.90
20858;DHT22;10589;53.636;10.012;2024-01-10T12:33:33;-1.80;99.90
20858;DHT22;10589;53.636;10.012;2024-01-10T12:36:07;-1.70;99.90
20858;DHT22;10589;53.636;10.012;2024-01-10T12:38:34;-1.70;99.90
20858;DHT22;10589;53.636;10.012;2024-01-10T12:41:01;-1.70;99.90
20858;DHT22;10589;53.636;10.012;2024-01-10T12:43:27;-1.70;99.90
20858;DHT22;10589;53.636;10.012;2024-01-10T12:46:22;-1.70;99.90
20858;DHT22;10589;53.636;10.012;2024-01-10T12:49:06;-1.60;99.90
20858;DHT22;10589;53.636;10.012;2024-01-10T12:51:33;-1.60;99.90
20858;DHT22;10589;53.636;10.012;2024-01-10T12:53:59;-1.80;99.90
20858;DHT22;10589;53.636;10.012;2024-01-10T12:56:26;-1.80;99.90
20858;DHT22;10589;53.636;10.012;2024-01-10T12:58:52;-1.80;99.90
20858;DHT22;10589;53.636;10.012;2024-01-10T13:01:18;-1.80;99.90
20858;DHT22;10589;53.636;10.012;2024-01-10T13:03:43;-1.80;99.90
20858;DHT22;10589;53.636;10.012;2024-01-10T13:06:09;-1.80;99.90
20858;DHT22;10589;53.636;10.012;2024-01-10T13:08:36;-1.80;99.90
20858;DHT22;10589;53.636;10.012;2024-01-10T13:11:02;-1.80;99.90
20858;DHT22;10589;53.636;10.012;2024-01-10T13:13:29;-1.70;99.90
20858;DHT22;10589;53.636;10.012;2024-01-10T13:15:55;-1.70;99.90
20858;DHT22;10589;53.636;10.012;2024-01-10T13:18:21;-1.70;99.90
20858;DHT22;10589;53.636;10.012;2024-01-10T13:20:46;-1.70;99.90
20858;DHT22;10589;53.636;10.012;2024-01-10T13:23:12;-1.70;99.90
20858;DHT22;10589;53.636;10.012;2024-01-10T13:25:38;-1.70;99.90
20858;DHT22;10589;53.636;10.012;2024-01-10T13:28:04;-1.90;99.90
20858;DHT22;10589;53.636;10.012;2024-01-10T13:30:30;-1.90;99.90
20858;DHT22;10589;53.636;10.012;2024-01-10T13:32:56;-1.80;99.90
20858;DHT22;10589;53.636;10.012;2024-01-10T13:35:23;-1.70;99.90
20858;DHT22;10589;53.636;10.012;2024-01-10T13:37:49;-1.60;99.90
20858;DHT22;10589;53.636;10.012;2024-01-10T13:40:15;-1.50;99.90
20858;DHT22;10589;53.636;10.012;2024-01-10T13:42:41;-1.60;99.90
20858;DHT22;10589;53.636;10.012;2024-01-10T13:45:08;-1.50;99.90
20858;DHT22;10589;53.636;10.012;2024-01-10T13:47:36;-1.40;99.90
20858;DHT22;10589;53.636;10.012;2024-01-10T13:50:06;-1.40;99.90
20858;DHT22;10589;53.636;10.012;2024-01-10T13:52:33;-1.40;99.90
20858;DHT22;10589;53.636;10.012;2024-01-10T13:54:59;-1.50;99.90
20858;DHT22;10589;53.636;10.012;2024-01-10T13:57:25;-1.50;99.90
20858;DHT22;10589;53.636;10.012;2024-01-10T13:59:52;-1.50;99.90
20858;DHT22;10589;53.636;10.012;2024-01-10T14:02:21;-1.60;99.90
20858;DHT22;10589;53.636;10.012;2024-01-10T14:04:47;-1.50;99.90
20858;DHT22;10589;53.636;10.012;2024-01-10T14:07:12;-1.50;99.90
20858;DHT22;10589;53.636;10.012;2024-01-10T14:09:38;-1.60;99.90
20858;DHT22;10589;53.636;10.012;2024-01-10T14:12:04;-1.70;99.90
20858;DHT22;10589;53.636;10.012;2024-01-10T14:14:29;-1.90;99.90
20858;DHT22;10589;53.636;10.012;2024-01-10T14:16:57;-1.90;99.90
20858;DHT22;10589;53.636;10.012;2024-01-10T14:19:23;-2.00;99.90
20858;DHT22;10589;53.636;10.012;2024-01-10T14:21:54;-1.90;99.90
20858;DHT22;10589;53.636;10.012;2024-01-10T14:24:20;-1.90;99.90
20858;DHT22;10589;53.636;10.012;2024-01-10T14:26:45;-1.80;99.90
20858;DHT22;10589;53.636;10.012;2024-01-10T14:29:12;-1.80;99.90
20858;DHT22;10589;53.636;10.012;2024-01-10T14:31:38;-1.80;99.90
20858;DHT22;10589;53.636;10.012;2024-01-10T14:34:06;-1.90;99.90
20858;DHT22;10589;53.636;10.012;2024-01-10T14:36:31;-1.80;99.90
20858;DHT22;10589;53.636;10.012;2024-01-10T14:38:57;-1.80;99.90
20858;DHT22;10589;53.636;10.012;2024-01-10T14:41:23;-1.90;99.90
20858;DHT22;10589;53.636;10.012;2024-01-10T14:43:48;-2.00;99.90
20858;DHT22;10589;53.636;10.012;2024-01-10T14:46:14;-2.00;99.90
20858;DHT22;10589;53.636;10.012;2024-01-10T14:48:40;-2.10;99.90
20858;DHT22;10589;53.636;10.012;2024-01-10T14:51:06;-2.10;99.90
20858;DHT22;10589;53.636;10.012;2024-01-10T14:53:32;-2.10;99.90
20858;DHT22;10589;53.636;10.012;2024-01-10T14:56:02;-2.10;99.90
20858;DHT22;10589;53.636;10.012;2024-01-10T14:58:28;-2.10;99.90
20858;DHT22;10589;53.636;10.012;2024-01-10T15:00:54;-2.10;99.90
20858;DHT22;10589;53.636;10.012;2024-01-10T15:03:19;-2.20;99.90
20858;DHT22;10589;53.636;10.012;2024-01-10T15:05:47;-2.20;99.90
20858;DHT22;10589;53.636;10.012;2024-01-10T15:08:13;-2.30;99.90
20858;DHT22;10589;53.636;10.012;2024-01-10T15:10:39;-2.30;99.90
20858;DHT22;10589;53.636;10.012;2024-01-10T15:13:11;-2.30;99.90
20858;DHT22;10589;53.636;10.012;2024-01-10T15:15:38;-2.30;99.90
20858;DHT22;10589;53.636;10.012;2024-01-10T15:18:04;-2.30;99.90
20858;DHT22;10589;53.636;10.012;2024-01-10T15:20:30;-2.30;99.90
20858;DHT22;10589;53.636;10.012;2024-01-10T15:22:56;-2.30;99.90
20858;DHT22;10589;53.636;10.012;2024-01-10T15:25:23;-2.40;99.90
20858;DHT22;10589;53.636;10.012;2024-01-10T15:27:50;-2.40;99.90
20858;DHT22;10589;53.636;10.012;2024-01-10T15:30:16;-2.40;99.90
20858;DHT22;10589;53.636;10.012;2024-01-10T15:32:42;-2.40;99.90
20858;DHT22;10589;53.636;10.012;2024-01-10T15:35:10;-2.40;99.90
20858;DHT22;10589;53.636;10.012;2024-01-10T15:37:36;-2.50;99.90
20858;DHT22;10589;53.636;10.012;2024-01-10T15:40:02;-2.40;99.90
20858;DHT22;10589;53.636;10.012;2024-01-10T15:42:28;-2.50;99.90
20858;DHT22;10589;53.636;10.012;2024-01-10T15:44:53;-2.50;99.90
20858;DHT22;10589;53.636;10.012;2024-01-10T15:47:19;-2.50;99.90
20858;DHT22;10589;53.636;10.012;2024-01-10T15:49:44;-2.50;99.90
20858;DHT22;10589;53.636;10.012;2024-01-10T15:52:12;-2.50;99.90
20858;DHT22;10589;53.636;10.012;2024-01-10T15:54:38;-2.50;99.90
20858;DHT22;10589;53.636;10.012;2024-01-10T15:57:07;-2.50;99.90
20858;DHT22;10589;53.636;10.012;2024-01-10T15:59:32;-2.50;99.90
20858;DHT22;10589;53.636;10.012;2024-01-10T16:01:58;-2.50;99.90
20858;DHT22;10589;53.636;10.012;2024-01-10T16:04:23;-2.50;99.90
20858;DHT22;10589;53.636;10.012;2024-01-10T16:06:49;-2.50;99.90
20858;DHT22;10589;53.636;10.012;2024-01-10T16:09:15;-2.50;99.90
20858;DHT22;10589;53.636;10.012;2024-01-10T16:11:42;-2.50;99.90
20858;DHT22;10589;53.636;10.012;2024-01-10T16:14:10;-2.50;99.90
20858;DHT22;10589;53.636;10.012;2024-01-10T16:16:36;-2.50;99.90
20858;DHT22;10589;53.636;10.012;2024-01-10T16:19:02;-2.50;99.90
20858;DHT22;10589;53.636;10.012;2024-01-10T16:21:31;-2.50;99.90
20858;DHT22;10589;53.636;10.012;2024-01-10T16:23:57;-2.50;99.90
20858;DHT22;10589;53.636;10.012;2024-01-10T16:26:23;-2.50;99.90
20858;DHT22;10589;53.636;10.012;2024-01-10T16:28:48;-2.50;99.90
20858;DHT22;10589;53.636;10.012;2024-01-10T16:31:16;-2.50;99.90
20858;DHT22;10589;53.636;10.012;2024-01-10T16:33:42;-2.50;99.90
20858;DHT22;10589;53.636;10.012;2024-01-10T16:36:07;-2.50;99.90
20858;DHT22;10589;53.636;10.012;2024-01-10T16:38:33;-2.50;99.90
20858;DHT22;10589;53.636;10.012;2024-01-10T16:40:59;-2.50;99.90
20858;DHT22;10589;53.636;10.012;2024-01-10T16:43:26;-2.40;99.90
20858;DHT22;10589;53.636;10.012;2024-01-10T16:45:52;-2.50;99.90
20858;DHT22;10589;53.636;10.012;2024-01-10T16:48:18;-2.40;99.90
20858;DHT22;10589;53.636;10.012;2024-01-10T16:50:43;-2.50;99.90
20858;DHT22;10589;53.636;10.012;2024-01-10T16:53:09;-2.40;99.90
20858;DHT22;10589;53.636;10.012;2024-01-10T16:55:35;-2.50;99.90
20858;DHT22;10589;53.636;10.012;2024-01-10T16:58:00;-2.50;99.90
20858;DHT22;10589;53.636;10.012;2024-01-10T17:00:26;-2.50;99.90
20858;DHT22;10589;53.636;10.012;2024-01-10T17:02:51;-2.50;99.90
20858;DHT22;10589;53.636;10.012;2024-01-10T17:05:17;-2.50;99.90
20858;DHT22;10589;53.636;10.012;2024-01-10T17:07:44;-2.50;99.90
20858;DHT22;10589;53.636;10.012;2024-01-10T17:10:10;-2.50;99.90
20858;DHT22;10589;53.636;10.012;2024-01-10T17:12:35;-2.50;99.90
20858;DHT22;10589;53.636;10.012;2024-01-10T17:15:01;-2.60;99.90
20858;DHT22;10589;53.636;10.012;2024-01-10T17:17:28;-2.50;99.90
20858;DHT22;10589;53.636;10.012;2024-01-10T17:19:54;-2.60;99.90
20858;DHT22;10589;53.636;10.012;2024-01-10T17:22:19;-2.50;99.90
20858;DHT22;10589;53.636;10.012;2024-01-10T17:24:45;-2.50;99.90
20858;DHT22;10589;53.636;10.012;2024-01-10T17:27:10;-2.60;99.90
20858;DHT22;10589;53.636;10.012;2024-01-10T17:29:36;-2.50;99.90
20858;DHT22;10589;53.636;10.012;2024-01-10T17:32:02;-2.60;99.90
20858;DHT22;10589;53.636;10.012;2024-01-10T17:34:28;-2.50;99.90
20858;DHT22;10589;53.636;10.012;2024-01-10T17:36:55;-2.50;99.90
20858;DHT22;10589;53.636;10.012;2024-01-10T17:39:21;-2.50;99.90
20858;DHT22;10589;53.636;10.012;2024-01-10T17:41:46;-2.50;99.90
20858;DHT22;10589;53.636;10.012;2024-01-10T17:44:13;-2.50;99.90
20858;DHT22;10589;53.636;10.012;2024-01-10T17:46:39;-2.40;99.90
20858;DHT22;10589;53.636;10.012;2024-01-10T17:49:04;-2.50;99.90
20858;DHT22;10589;53.636;10.012;2024-01-10T17:51:30;-2.50;99.90
20858;DHT22;10589;53.636;10.012;2024-01-10T17:53:56;-2.50;99.90
20858;DHT22;10589;53.636;10.012;2024-01-10T17:56:21;-2.50;99.90
20858;DHT22;10589;53.636;10.012;2024-01-10T17:58:47;-2.50;99.90
20858;DHT22;10589;53.636;10.012;2024-01-10T18:01:13;-2.50;99.90
20858;DHT22;10589;53.636;10.012;2024-01-10T18:03:39;-2.50;99.90
20858;DHT22;10589;53.636;10.012;2024-01-10T18:06:04;-2.50;99.90
20858;DHT22;10589;53.636;10.012;2024-01-10T18:08:30;-2.50;99.90
20858;DHT22;10589;53.636;10.012;2024-01-10T18:10:56;-2.50;99.90
20858;DHT22;10589;53.636;10.012;2024-01-10T18:13:22;-2.60;99.90
20858;DHT22;10589;53.636;10.012;2024-01-10T18:15:48;-2.60;99.90
20858;DHT22;10589;53.636;10.012;2024-01-10T18:18:14;-2.60;99.90
20858;DHT22;10589;53.636;10.012;2024-01-10T18:20:40;-2.60;99.90
20858;DHT22;10589;53.636;10.012;2024-01-10T18:23:05;-2.60;99.90
20858;DHT22;10589;53.636;10.012;2024-01-10T18:25:32;-2.60;99.90
20858;DHT22;10589;53.636;10.012;2024-01-10T18:27:57;-2.60;99.90
20858;DHT22;10589;53.636;10.012;2024-01-10T18:30:23;-2.60;99.90
20858;DHT22;10589;53.636;10.012;2024-01-10T18:32:51;-2.60;99.90
20858;DHT22;10589;53.636;10.012;2024-01-10T18:35:19;-2.60;99.90
20858;DHT22;10589;53.636;10.012;2024-01-10T18:37:46;-2.60;99.90
20858;DHT22;10589;53.636;10.012;2024-01-10T18:40:13;-2.60;99.90
20858;DHT22;10589;53.636;10.012;2024-01-10T18:42:39;-2.60;99.90
20858;DHT22;10589;53.636;10.012;2024-01-10T18:45:04;-2.60;99.90
20858;DHT22;10589;53.636;10.012;2024-01-10T18:47:31;-2.60;99.90
20858;DHT22;10589;53.636;10.012;2024-01-10T18:49:56;-2.60;99.90
20858;DHT22;10589;53.636;10.012;2024-01-10T18:52:23;-2.70;99.90
20858;DHT22;10589;53.636;10.012;2024-01-10T18:54:49;-2.70;99.90
20858;DHT22;10589;53.636;10.012;2024-01-10T18:57:15;-2.70;99.90
20858;DHT22;10589;53.636;10.012;2024-01-10T18:59:42;-2.70;99.90
20858;DHT22;10589;53.636;10.012;2024-01-10T19:02:08;-2.70;99.90
20858;DHT22;10589;53.636;10.012;2024-01-10T19:04:33;-2.70;99.90
20858;DHT22;10589;53.636;10.012;2024-01-10T19:06:59;-2.70;99.90
20858;DHT22;10589;53.636;10.012;2024-01-10T19:09:25;-2.80;99.90
20858;DHT22;10589;53.636;10.012;2024-01-10T19:11:50;-2.80;99.90
20858;DHT22;10589;53.636;10.012;2024-01-10T19:14:16;-2.80;99.90
20858;DHT22;10589;53.636;10.012;2024-01-10T19:16:42;-3.00;99.90
20858;DHT22;10589;53.636;10.012;2024-01-10T19:19:10;-3.00;99.90
20858;DHT22;10589;53.636;10.012;2024-01-10T19:21:35;-3.00;99.90
20858;DHT22;10589;53.636;10.012;2024-01-10T19:24:04;-2.90;99.90
20858;DHT22;10589;53.636;10.012;2024-01-10T19:26:30;-2.80;99.90
20858;DHT22;10589;53.636;10.012;2024-01-10T19:28:55;-2.80;99.90
20858;DHT22;10589;53.636;10.012;2024-01-10T19:31:21;-2.70;99.90
20858;DHT22;10589;53.636;10.012;2024-01-10T19:33:47;-2.80;99.90
20858;DHT22;10589;53.636;10.012;2024-01-10T19:36:14;-2.70;99.90
20858;DHT22;10589;53.636;10.012;2024-01-10T19:38:41;-2.80;99.90
20858;DHT22;10589;53.636;10.012;2024-01-10T19:41:06;-2.90;99.90
20858;DHT22;10589;53.636;10.012;2024-01-10T19:43:32;-2.90;99.90
20858;DHT22;10589;53.636;10.012;2024-01-10T19:45:58;-2.90;99.90
20858;DHT22;10589;53.636;10.012;2024-01-10T19:48:23;-2.90;99.90
20858;DHT22;10589;53.636;10.012;2024-01-10T19:50:49;-2.80;99.90
20858;DHT22;10589;53.636;10.012;2024-01-10T19:53:14;-2.80;99.90
20858;DHT22;10589;53.636;10.012;2024-01-10T19:55:40;-2.80;99.90
20858;DHT22;10589;53.636;10.012;2024-01-10T19:58:06;-2.80;99.90
20858;DHT22;10589;53.636;10.012;2024-01-10T20:00:31;-2.70;99.90
20858;DHT22;10589;53.636;10.012;2024-01-10T20:02:58;-2.70;99.90
20858;DHT22;10589;53.636;10.012;2024-01-10T20:05:24;-2.70;99.90
20858;DHT22;10589;53.636;10.012;2024-01-10T20:07:50;-2.70;99.90